Time;durP1;ratioP1;P1;durP2;ratioP2;P2;SDS_P1;SDS_P2;PMS_P1;PMS_P2;Temp;Humidity;BMP_temperature;BMP_pressure;BME280_temperature;BME280_humidity;BME280_pressure;Samples;Min_cycle;Max_cycle;Signal;HPM_P1;HPM_P2
2022/05/25 00:01:44;;;;;;;4.63;1.52;;;10.70;99.90;;;;;;5046019;28;20132;-54
2022/05/25 00:04:11;;;;;;;3.95;1.02;;;10.70;99.90;;;;;;5044936;28;20060;-53
2022/05/25 00:06:38;;;;;;;1.92;1.17;;;10.70;99.90;;;;;;5042080;28;20049;-53
2022/05/25 00:09:04;;;;;;;8.68;1.02;;;10.70;99.90;;;;;;5039339;28;20085;-54
2022/05/25 00:11:31;;;;;;;0.90;0.80;;;10.60;99.90;;;;;;5048137;28;20084;-55
2022/05/25 00:13:58;;;;;;;0.93;0.80;;;10.60;99.90;;;;;;5050318;28;20492;-54
2022/05/25 00:16:25;;;;;;;1.33;0.90;;;10.60;99.90;;;;;;5048456;28;20190;-56
2022/05/25 00:21:39;;;;;;;2.65;0.90;;;10.60;99.90;;;;;;5048014;28;20279;-54
2022/05/25 00:24:06;;;;;;;2.92;0.75;;;10.60;99.90;;;;;;5048847;28;20049;-54
2022/05/25 00:26:33;;;;;;;1.40;0.77;;;10.50;99.90;;;;;;5049717;28;20073;-55
2022/05/25 00:29:03;;;;;;;6.60;1.30;;;10.60;99.90;;;;;;5049958;28;20052;-56
2022/05/25 00:31:30;;;;;;;2.00;0.82;;;10.50;99.90;;;;;;5080980;28;20045;-56
2022/05/25 00:33:58;;;;;;;2.03;0.68;;;10.50;99.90;;;;;;5043240;28;20080;-56
2022/05/25 00:36:25;;;;;;;6.15;0.80;;;10.50;99.90;;;;;;5047967;28;20475;-55
2022/05/25 00:38:52;;;;;;;1.45;0.60;;;10.40;99.90;;;;;;5049797;28;20494;-55
2022/05/25 00:41:26;;;;;;;3.03;0.90;;;10.40;99.90;;;;;;5049697;28;20045;-52
2022/05/25 00:43:53;;;;;;;1.58;0.90;;;10.40;99.90;;;;;;5049284;28;20115;-54
2022/05/25 00:46:20;;;;;;;1.60;0.90;;;10.30;99.90;;;;;;5047579;28;20088;-55
2022/05/25 00:48:50;;;;;;;2.97;0.80;;;10.30;99.90;;;;;;5047061;28;20045;-56
2022/05/25 00:51:22;;;;;;;0.40;0.40;;;10.30;99.90;;;;;;5070388;28;20076;-55
2022/05/25 00:53:54;;;;;;;0.68;0.65;;;10.20;99.90;;;;;;5047174;28;20049;-54
2022/05/25 00:56:21;;;;;;;2.72;0.85;;;10.20;99.90;;;;;;5039423;28;20049;-55
2022/05/25 00:58:52;;;;;;;1.25;0.70;;;10.20;99.90;;;;;;5049094;28;20083;-56
2022/05/25 01:01:19;;;;;;;1.20;0.60;;;10.20;99.90;;;;;;5043603;28;20112;-52
2022/05/25 01:03:46;;;;;;;0.85;0.60;;;10.10;99.90;;;;;;5043351;28;20087;-55
2022/05/25 01:06:37;;;;;;;0.90;0.52;;;10.10;99.90;;;;;;5048996;28;20075;-55
2022/05/25 01:09:25;;;;;;;2.15;0.70;;;10.00;99.90;;;;;;5075816;28;20248;-53
2022/05/25 01:12:01;;;;;;;1.15;0.68;;;10.00;99.90;;;;;;5043694;28;20085;-55
2022/05/25 01:14:30;;;;;;;2.75;0.70;;;10.00;99.90;;;;;;5046260;28;20500;-54
2022/05/25 01:17:11;;;;;;;7.53;2.30;;;10.00;99.90;;;;;;5032529;28;20136;-56
2022/05/25 01:19:43;;;;;;;0.95;0.60;;;10.00;99.90;;;;;;5047088;28;20139;-55
2022/05/25 01:22:32;;;;;;;2.53;1.10;;;10.10;99.90;;;;;;5048920;28;20053;-52
2022/05/25 01:25:28;;;;;;;2.30;1.10;;;10.10;99.90;;;;;;5048949;28;20077;-53
2022/05/25 01:27:55;;;;;;;3.05;0.90;;;10.10;99.90;;;;;;5022146;28;20053;-55
2022/05/25 01:30:35;;;;;;;4.00;1.27;;;10.10;99.90;;;;;;5078505;28;20136;-55
2022/05/25 01:33:15;;;;;;;3.35;0.70;;;10.10;99.90;;;;;;5042450;28;20127;-53
2022/05/25 01:36:03;;;;;;;2.08;0.60;;;10.10;99.90;;;;;;5047438;28;20041;-50
2022/05/25 01:38:36;;;;;;;1.45;0.73;;;10.10;99.90;;;;;;5037027;28;20819;-55
2022/05/25 01:41:22;;;;;;;3.57;1.07;;;10.10;99.90;;;;;;5076778;28;20076;-55
2022/05/25 01:44:01;;;;;;;3.67;0.88;;;10.10;99.90;;;;;;5047047;28;20041;-57
2022/05/25 01:46:32;;;;;;;2.53;0.45;;;10.10;99.90;;;;;;5077383;28;20044;-55
2022/05/25 01:49:03;;;;;;;3.38;0.90;;;10.10;99.90;;;;;;5041487;28;20079;-55
2022/05/25 01:51:33;;;;;;;6.35;0.80;;;10.10;99.90;;;;;;5063193;28;20095;-56
2022/05/25 01:54:01;;;;;;;2.40;0.70;;;10.10;99.90;;;;;;5079824;28;20080;-54
2022/05/25 01:56:30;;;;;;;7.63;1.10;;;10.10;99.90;;;;;;5063703;28;20045;-54
2022/05/25 01:59:00;;;;;;;3.72;0.85;;;10.10;99.90;;;;;;5080593;28;20072;-56
2022/05/25 02:01:27;;;;;;;2.47;0.65;;;10.10;99.90;;;;;;5047327;28;20053;-53
2022/05/25 02:07:08;;;;;;;9.15;0.93;;;10.20;99.90;;;;;;5046038;28;20096;-55
2022/05/25 02:10:13;;;;;;;2.58;0.82;;;10.10;99.90;;;;;;5034719;28;20049;-53
2022/05/25 02:12:55;;;;;;;9.10;1.70;;;10.20;99.90;;;;;;5047692;28;20048;-52
2022/05/25 02:15:40;;;;;;;4.30;1.05;;;10.10;99.90;;;;;;5047659;28;20148;-52
2022/05/25 02:18:18;;;;;;;4.10;0.88;;;10.20;99.90;;;;;;5035478;28;20052;-52
2022/05/25 02:21:22;;;;;;;4.85;0.70;;;10.20;99.90;;;;;;5043505;28;20076;-48
2022/05/25 02:24:06;;;;;;;4.50;1.92;;;10.20;99.90;;;;;;5026712;28;20083;-53
2022/05/25 02:26:39;;;;;;;4.88;0.80;;;10.20;99.90;;;;;;5046495;28;20069;-53
2022/05/25 02:29:26;;;;;;;2.60;1.00;;;10.10;99.90;;;;;;5080107;28;20087;-53
2022/05/25 02:32:10;;;;;;;3.63;1.15;;;10.10;99.90;;;;;;5073987;28;20080;-49
2022/05/25 02:34:38;;;;;;;2.20;1.00;;;10.20;99.90;;;;;;5040770;28;20053;-55
2022/05/25 02:37:05;;;;;;;5.25;1.00;;;10.10;99.90;;;;;;5042311;28;20073;-56
2022/05/25 02:39:32;;;;;;;4.10;0.93;;;10.10;99.90;;;;;;5079827;28;20052;-55
2022/05/25 02:41:59;;;;;;;4.38;1.30;;;10.20;99.90;;;;;;5051514;28;20468;-52
2022/05/25 02:44:26;;;;;;;7.22;2.03;;;10.20;99.90;;;;;;5051687;28;20088;-56
2022/05/25 02:46:52;;;;;;;1.83;0.82;;;10.20;99.90;;;;;;5080642;28;20103;-54
2022/05/25 02:49:19;;;;;;;4.47;1.10;;;10.20;99.90;;;;;;5045843;28;20111;-54
2022/05/25 02:51:46;;;;;;;4.78;1.27;;;10.20;99.90;;;;;;5050843;28;20098;-53
2022/05/25 02:54:13;;;;;;;3.30;1.05;;;10.10;99.90;;;;;;5051694;28;20091;-56
2022/05/25 02:56:40;;;;;;;6.38;2.00;;;10.10;99.90;;;;;;5051150;28;20083;-55
2022/05/25 02:59:06;;;;;;;4.07;1.17;;;10.00;99.90;;;;;;5051586;28;20091;-56
2022/05/25 03:01:33;;;;;;;4.35;0.90;;;10.00;99.90;;;;;;5051327;28;20471;-53
2022/05/25 03:04:00;;;;;;;2.28;1.23;;;10.10;99.90;;;;;;5051076;28;20049;-55
2022/05/25 03:06:27;;;;;;;8.20;1.10;;;10.10;99.90;;;;;;5050889;28;20079;-56
2022/05/25 03:08:53;;;;;;;7.03;1.00;;;10.10;99.90;;;;;;5051310;28;20408;-55
2022/05/25 03:11:20;;;;;;;9.38;1.15;;;10.10;99.90;;;;;;5051335;28;20127;-55
2022/05/25 03:13:48;;;;;;;1.63;0.80;;;10.20;99.90;;;;;;5050223;28;20124;-53
2022/05/25 03:16:16;;;;;;;2.83;1.00;;;10.20;99.90;;;;;;5051429;28;20052;-51
2022/05/25 03:18:43;;;;;;;6.53;1.00;;;10.20;99.90;;;;;;5050761;28;20048;-55
2022/05/25 03:21:10;;;;;;;7.57;0.73;;;10.30;99.90;;;;;;5051365;28;20110;-53
2022/05/25 03:23:37;;;;;;;6.65;1.20;;;10.30;99.90;;;;;;5050643;28;20049;-59
2022/05/25 03:26:04;;;;;;;5.72;0.95;;;10.30;99.90;;;;;;5051293;28;20454;-56
2022/05/25 03:28:31;;;;;;;6.93;0.82;;;10.20;99.90;;;;;;5050797;28;20119;-52
2022/05/25 03:30:57;;;;;;;4.38;0.93;;;10.30;99.90;;;;;;5047491;28;20045;-56
2022/05/25 03:33:24;;;;;;;3.47;0.80;;;10.30;99.90;;;;;;5045271;28;20049;-53
2022/05/25 03:35:51;;;;;;;1.90;0.65;;;10.20;99.90;;;;;;5045159;28;20141;-51
2022/05/25 03:38:18;;;;;;;1.80;0.82;;;10.30;99.90;;;;;;5049669;28;20128;-50
2022/05/25 03:40:45;;;;;;;2.70;0.80;;;10.30;99.90;;;;;;5049665;28;20096;-53
2022/05/25 03:43:12;;;;;;;2.47;1.00;;;10.30;99.90;;;;;;5082082;28;20480;-54
2022/05/25 03:45:39;;;;;;;2.75;1.00;;;10.20;99.90;;;;;;5062594;28;20516;-53
2022/05/25 03:48:07;;;;;;;6.78;0.80;;;10.30;99.90;;;;;;5037428;28;20479;-56
2022/05/25 03:50:38;;;;;;;1.73;0.85;;;10.30;99.90;;;;;;5050593;28;20492;-53
2022/05/25 03:53:06;;;;;;;6.78;0.80;;;10.30;99.90;;;;;;5049117;28;20041;-53
2022/05/25 03:55:34;;;;;;;2.33;0.98;;;10.30;99.90;;;;;;5050696;28;20068;-54
2022/05/25 03:58:02;;;;;;;6.88;0.93;;;10.20;99.90;;;;;;5050333;28;20152;-54
2022/05/25 04:00:29;;;;;;;2.80;0.80;;;10.20;99.90;;;;;;5049769;28;20125;-54
2022/05/25 04:02:59;;;;;;;1.73;0.90;;;10.20;99.90;;;;;;5043386;28;20099;-53
2022/05/25 04:05:26;;;;;;;3.40;0.90;;;10.20;99.90;;;;;;5048094;28;20048;-55
2022/05/25 04:07:58;;;;;;;5.50;0.98;;;10.20;99.90;;;;;;5049773;28;20087;-55
2022/05/25 04:10:29;;;;;;;2.03;1.17;;;10.20;99.90;;;;;;5049534;28;20459;-53
2022/05/25 04:12:56;;;;;;;3.28;0.80;;;10.20;99.90;;;;;;5039883;28;20077;-53
2022/05/25 04:15:25;;;;;;;4.57;1.10;;;10.20;99.90;;;;;;5046252;28;20075;-51
2022/05/25 04:17:52;;;;;;;4.78;1.30;;;10.20;99.90;;;;;;5049978;28;20136;-53
2022/05/25 04:20:19;;;;;;;3.13;0.85;;;10.20;99.90;;;;;;5049517;28;20159;-56
2022/05/25 04:22:46;;;;;;;3.08;1.10;;;10.20;99.90;;;;;;5050339;28;20076;-54
2022/05/25 04:25:14;;;;;;;1.63;0.75;;;10.20;99.90;;;;;;5049325;28;20566;-54
2022/05/25 04:27:41;;;;;;;1.05;1.00;;;10.20;99.90;;;;;;5049881;28;20140;-53
2022/05/25 04:30:09;;;;;;;2.10;0.80;;;10.20;99.90;;;;;;5049290;28;20129;-54
2022/05/25 04:32:36;;;;;;;3.67;0.75;;;10.20;99.90;;;;;;5041854;28;20110;-52
2022/05/25 04:35:04;;;;;;;9.30;1.00;;;10.10;99.90;;;;;;5048509;28;20131;-54
2022/05/25 04:37:49;;;;;;;2.67;0.60;;;10.20;99.90;;;;;;5049376;28;20139;-54
2022/05/25 04:40:17;;;;;;;2.83;0.80;;;10.20;99.90;;;;;;5049244;28;20467;-54
2022/05/25 04:42:45;;;;;;;4.47;1.23;;;10.20;99.90;;;;;;5049745;28;20053;-54
2022/05/25 04:45:12;;;;;;;4.90;0.60;;;10.30;99.90;;;;;;5047466;28;20045;-53
2022/05/25 04:47:40;;;;;;;2.75;1.25;;;10.20;99.90;;;;;;5042942;28;20542;-55
2022/05/25 04:50:14;;;;;;;2.17;0.80;;;10.20;99.90;;;;;;5048919;28;20119;-53
2022/05/25 04:52:41;;;;;;;2.25;0.70;;;10.30;99.90;;;;;;5049078;28;20076;-52
2022/05/25 04:55:08;;;;;;;2.25;0.98;;;10.30;99.90;;;;;;5049091;28;20136;-55
2022/05/25 04:57:35;;;;;;;1.70;0.85;;;10.30;99.90;;;;;;5046181;28;20065;-55
2022/05/25 05:00:04;;;;;;;5.28;1.52;;;10.30;99.90;;;;;;5049286;28;20045;-53
2022/05/25 05:02:31;;;;;;;3.88;0.80;;;10.30;99.90;;;;;;5048588;28;20496;-55
2022/05/25 05:04:58;;;;;;;6.18;1.27;;;10.20;99.90;;;;;;5049153;28;20137;-55
2022/05/25 05:07:29;;;;;;;6.63;1.17;;;10.30;99.90;;;;;;5048204;28;20500;-52
2022/05/25 05:09:58;;;;;;;4.47;1.35;;;10.20;99.90;;;;;;5049129;28;20045;-53
2022/05/25 05:12:25;;;;;;;5.03;1.05;;;10.20;99.90;;;;;;5080803;28;20052;-54
2022/05/25 05:14:51;;;;;;;2.58;0.70;;;10.20;99.90;;;;;;5081026;28;20076;-52
2022/05/25 05:17:18;;;;;;;6.25;0.95;;;10.30;99.90;;;;;;5045026;28;20114;-50
2022/05/25 05:19:45;;;;;;;5.38;1.02;;;10.30;99.90;;;;;;5047676;28;20112;-51
2022/05/25 05:22:12;;;;;;;2.63;1.13;;;10.30;99.90;;;;;;5048216;28;20484;-52
2022/05/25 05:24:40;;;;;;;3.40;0.77;;;10.30;99.90;;;;;;5048836;28;20492;-54
2022/05/25 05:27:07;;;;;;;6.15;1.10;;;10.30;99.90;;;;;;5079984;28;20581;-52
2022/05/25 05:29:34;;;;;;;3.47;1.00;;;10.40;99.90;;;;;;5048719;28;20077;-52
2022/05/25 05:32:01;;;;;;;6.50;1.10;;;10.40;99.90;;;;;;5073490;28;20076;-52
2022/05/25 05:34:28;;;;;;;3.25;1.00;;;10.40;99.90;;;;;;5048683;28;20696;-50
2022/05/25 05:37:01;;;;;;;9.10;0.90;;;10.40;99.90;;;;;;5048317;28;20044;-52
2022/05/25 05:39:30;;;;;;;3.75;1.00;;;10.40;99.90;;;;;;5071632;28;20298;-54
2022/05/25 05:42:05;;;;;;;2.67;0.57;;;10.50;99.90;;;;;;5032662;28;20091;-53
2022/05/25 05:44:35;;;;;;;5.60;0.80;;;10.60;99.90;;;;;;5042804;28;20172;-53
2022/05/25 05:47:02;;;;;;;12.05;1.58;;;10.60;99.90;;;;;;5033781;28;20084;-55
2022/05/25 05:49:29;;;;;;;4.15;1.05;;;10.70;99.90;;;;;;5080271;28;20049;-56
2022/05/25 05:51:56;;;;;;;5.60;2.30;;;10.80;99.90;;;;;;5080010;28;20471;-52
2022/05/25 05:54:23;;;;;;;4.13;1.25;;;10.90;99.90;;;;;;5080257;28;20056;-56
2022/05/25 05:56:50;;;;;;;4.45;1.33;;;11.00;99.90;;;;;;5080348;28;20048;-55
2022/05/25 05:59:16;;;;;;;5.72;1.10;;;11.20;99.90;;;;;;5079966;28;20540;-52
2022/05/25 06:01:45;;;;;;;1.25;0.68;;;11.20;99.90;;;;;;5040257;28;20068;-49
2022/05/25 06:04:12;;;;;;;3.97;0.90;;;11.40;99.90;;;;;;5039190;28;20140;-55
2022/05/25 06:06:39;;;;;;;6.22;1.63;;;11.50;99.90;;;;;;5079616;28;20389;-56
2022/05/25 06:09:05;;;;;;;5.70;1.13;;;11.50;99.90;;;;;;5046675;28;20453;-56
2022/05/25 06:11:34;;;;;;;5.35;1.05;;;11.60;99.90;;;;;;5038149;28;20041;-52
2022/05/25 06:14:00;;;;;;;8.48;0.98;;;11.60;99.90;;;;;;5046036;28;20132;-53
2022/05/25 06:19:26;;;;;;;7.30;1.23;;;11.80;99.90;;;;;;5044300;28;20080;-54
2022/05/25 06:22:19;;;;;;;7.70;1.35;;;11.80;99.90;;;;;;5047544;28;20451;-51
2022/05/25 06:24:51;;;;;;;2.50;0.77;;;11.90;99.90;;;;;;5044989;28;20124;-52
2022/05/25 06:27:19;;;;;;;6.28;1.23;;;12.00;99.90;;;;;;5028277;28;20045;-51
2022/05/25 06:29:47;;;;;;;8.18;1.15;;;12.00;99.90;;;;;;5047566;28;20128;-53
2022/05/25 06:32:17;;;;;;;9.18;1.20;;;12.00;99.90;;;;;;5038848;28;20041;-54
2022/05/25 06:34:50;;;;;;;8.05;1.13;;;12.00;99.90;;;;;;5039669;28;20081;-55
2022/05/25 06:37:22;;;;;;;4.80;1.23;;;12.00;99.90;;;;;;5035736;28;20041;-55
2022/05/25 06:39:49;;;;;;;5.75;0.85;;;12.10;99.90;;;;;;5038695;28;20483;-54
2022/05/25 06:42:17;;;;;;;3.92;1.80;;;12.10;99.90;;;;;;5038291;28;20122;-53
2022/05/25 06:44:44;;;;;;;9.70;1.52;;;12.20;99.90;;;;;;5044696;28;20726;-50
2022/05/25 06:47:16;;;;;;;1.63;0.77;;;12.20;99.90;;;;;;5045526;28;20076;-53
2022/05/25 06:49:43;;;;;;;5.68;0.90;;;12.20;99.90;;;;;;5044363;28;20061;-53
2022/05/25 06:52:10;;;;;;;7.63;1.45;;;12.30;99.90;;;;;;5045620;28;20455;-55
2022/05/25 06:54:37;;;;;;;5.32;1.20;;;12.30;99.90;;;;;;5045647;28;20072;-55
2022/05/25 06:57:04;;;;;;;2.97;1.10;;;12.40;99.90;;;;;;5045784;28;20049;-55
2022/05/25 06:59:32;;;;;;;4.13;1.77;;;12.40;99.90;;;;;;5045002;28;20077;-54
2022/05/25 07:01:58;;;;;;;7.13;1.42;;;12.40;99.90;;;;;;5044271;28;20045;-54
2022/05/25 07:04:25;;;;;;;4.90;1.17;;;12.40;99.90;;;;;;5043810;28;20045;-54
2022/05/25 07:06:52;;;;;;;5.80;1.02;;;12.50;99.90;;;;;;5041715;28;20085;-52
2022/05/25 07:09:19;;;;;;;7.28;1.35;;;12.50;99.90;;;;;;5043144;28;20136;-51
2022/05/25 07:11:52;;;;;;;5.97;1.35;;;12.60;99.90;;;;;;5044406;28;20480;-55
2022/05/25 07:14:19;;;;;;;7.45;1.35;;;12.60;99.90;;;;;;5044454;28;20131;-53
2022/05/25 07:16:45;;;;;;;4.05;1.33;;;12.60;99.90;;;;;;5046080;28;20045;-54
2022/05/25 07:19:12;;;;;;;3.25;0.80;;;12.70;99.90;;;;;;5046164;28;20045;-53
2022/05/25 07:21:40;;;;;;;3.60;1.23;;;12.80;99.90;;;;;;5045490;28;20523;-55
2022/05/25 07:24:09;;;;;;;8.88;1.60;;;12.80;99.90;;;;;;5046235;28;20666;-55
2022/05/25 07:26:36;;;;;;;12.60;1.70;;;12.90;99.90;;;;;;5048104;28;20065;-55
2022/05/25 07:29:03;;;;;;;4.70;1.10;;;12.90;99.90;;;;;;5049852;28;20488;-52
2022/05/25 07:31:39;;;;;;;6.57;1.67;;;13.00;99.90;;;;;;5049944;28;20492;-54
2022/05/25 07:34:20;;;;;;;6.13;1.88;;;13.10;99.90;;;;;;5080457;28;20550;-60
2022/05/25 07:37:05;;;;;;;3.97;1.15;;;13.10;99.90;;;;;;5064245;28;20743;-55
2022/05/25 07:39:34;;;;;;;9.55;1.15;;;13.10;99.90;;;;;;5050082;28;20111;-55
2022/05/25 07:42:02;;;;;;;1.73;0.98;;;13.20;99.90;;;;;;5081147;28;20482;-55
2022/05/25 07:44:43;;;;;;;7.30;1.30;;;13.20;99.90;;;;;;5064028;28;20480;-55
2022/05/25 07:47:10;;;;;;;6.13;1.13;;;13.20;99.90;;;;;;5081100;28;20053;-55
2022/05/25 07:49:37;;;;;;;8.52;2.38;;;13.30;99.90;;;;;;5049470;28;20055;-51
2022/05/25 07:52:04;;;;;;;10.15;1.23;;;13.30;99.90;;;;;;5049376;28;20076;-55
2022/05/25 07:54:31;;;;;;;6.25;1.48;;;13.30;99.90;;;;;;5065179;28;20057;-54
2022/05/25 07:56:59;;;;;;;8.77;1.60;;;13.30;99.90;;;;;;5081461;28;20045;-53
2022/05/25 07:59:26;;;;;;;8.30;1.52;;;13.40;99.90;;;;;;5049442;28;20044;-56
2022/05/25 08:07:26;;;;;;;12.02;2.20;;;13.70;99.90;;;;;;5076530;28;20091;-56
2022/05/25 08:09:55;;;;;;;11.32;1.30;;;13.70;99.90;;;;;;5049768;28;20053;-53
2022/05/25 08:12:22;;;;;;;8.35;1.70;;;13.70;99.90;;;;;;5048376;28;20519;-54
2022/05/25 08:14:49;;;;;;;9.43;1.25;;;13.80;99.90;;;;;;5081266;28;20053;-54
2022/05/25 08:17:16;;;;;;;4.18;1.25;;;13.80;99.90;;;;;;5047778;28;20407;-53
2022/05/25 08:19:42;;;;;;;4.32;1.50;;;13.90;99.90;;;;;;5038215;28;20044;-49
2022/05/25 08:22:09;;;;;;;6.50;1.48;;;14.00;99.90;;;;;;5048992;28;20056;-52
2022/05/25 08:24:36;;;;;;;4.10;1.00;;;14.10;99.90;;;;;;5049706;28;20076;-54
2022/05/25 08:27:04;;;;;;;6.55;0.98;;;14.20;99.90;;;;;;5049237;28;20068;-52
2022/05/25 08:29:31;;;;;;;8.13;1.48;;;14.20;99.90;;;;;;5050042;28;20089;-55
2022/05/25 08:31:58;;;;;;;5.35;1.10;;;14.30;99.90;;;;;;5048903;28;20128;-55
2022/05/25 08:34:26;;;;;;;11.13;1.20;;;14.40;99.90;;;;;;5049118;28;20049;-54
2022/05/25 08:36:52;;;;;;;5.78;1.10;;;14.60;99.90;;;;;;5081241;28;20124;-53
2022/05/25 08:39:19;;;;;;;2.33;0.95;;;14.70;99.90;;;;;;5048274;28;20072;-54
2022/05/25 08:41:47;;;;;;;4.20;1.40;;;14.80;99.90;;;;;;5049339;28;20099;-53
2022/05/25 08:44:14;;;;;;;6.53;1.15;;;14.80;99.90;;;;;;5047496;28;20045;-53
2022/05/25 08:46:41;;;;;;;5.50;1.15;;;14.90;99.90;;;;;;5049254;28;20131;-55
2022/05/25 08:49:15;;;;;;;3.75;1.25;;;15.00;99.90;;;;;;5048730;28;20159;-51
2022/05/25 08:51:47;;;;;;;4.55;0.98;;;15.10;99.90;;;;;;5080848;28;20562;-50
2022/05/25 08:54:17;;;;;;;6.38;1.20;;;15.10;99.90;;;;;;5079625;28;20068;-54
2022/05/25 08:56:51;;;;;;;6.90;1.02;;;15.00;99.90;;;;;;5048858;28;20080;-54
2022/05/25 08:59:24;;;;;;;7.22;1.63;;;15.00;99.90;;;;;;5078967;28;20043;-49
2022/05/25 09:01:58;;;;;;;5.60;1.20;;;15.00;99.90;;;;;;5079898;28;20053;-52
2022/05/25 09:04:38;;;;;;;7.55;1.48;;;15.00;99.90;;;;;;5048562;28;20063;-53
2022/05/25 09:07:20;;;;;;;5.25;1.55;;;15.10;99.90;;;;;;5080454;28;20057;-53
2022/05/25 09:09:47;;;;;;;6.00;1.23;;;15.10;99.90;;;;;;5047042;28;20072;-54
2022/05/25 09:12:19;;;;;;;9.10;1.30;;;15.20;99.90;;;;;;5048701;28;20076;-54
2022/05/25 09:15:09;;;;;;;5.00;1.50;;;15.20;99.90;;;;;;5080124;28;20083;-55
2022/05/25 09:17:48;;;;;;;6.90;1.23;;;15.20;99.90;;;;;;5048738;28;20049;-53
2022/05/25 09:20:20;;;;;;;10.90;1.92;;;15.30;99.90;;;;;;5048362;28;20084;-54
2022/05/25 09:22:51;;;;;;;11.27;2.85;;;15.20;99.90;;;;;;5078695;28;20052;-54
2022/05/25 09:25:18;;;;;;;8.00;1.50;;;15.30;99.90;;;;;;5048388;28;20137;-54
2022/05/25 09:27:47;;;;;;;3.75;0.80;;;15.20;99.90;;;;;;5048841;28;20110;-55
2022/05/25 09:30:14;;;;;;;5.15;1.05;;;15.30;99.90;;;;;;5048551;28;20128;-52
2022/05/25 09:32:56;;;;;;;7.70;1.25;;;15.30;99.90;;;;;;5080816;28;20442;-51
2022/05/25 09:35:42;;;;;;;5.35;1.35;;;15.40;99.90;;;;;;5080217;28;20503;-51
2022/05/25 09:38:36;;;;;;;8.32;1.45;;;15.50;99.90;;;;;;5061064;28;20546;-53
2022/05/25 09:41:06;;;;;;;7.57;1.00;;;15.60;99.90;;;;;;5037372;28;20049;-56
2022/05/25 09:43:33;;;;;;;3.45;1.13;;;15.70;99.90;;;;;;5048545;28;20053;-54
2022/05/25 09:46:08;;;;;;;10.95;1.42;;;15.80;99.90;;;;;;5046723;28;20136;-55
2022/05/25 09:48:46;;;;;;;8.98;1.05;;;15.90;99.90;;;;;;5048440;28;20045;-55
2022/05/25 09:51:19;;;;;;;5.03;0.90;;;15.80;99.90;;;;;;5077618;28;20129;-52
2022/05/25 09:53:51;;;;;;;3.50;1.48;;;15.80;99.90;;;;;;5048787;28;20468;-54
2022/05/25 09:56:38;;;;;;;9.15;1.30;;;15.80;99.90;;;;;;5079630;28;20044;-53
2022/05/25 09:59:09;;;;;;;9.82;1.20;;;15.80;99.90;;;;;;5048324;28;20077;-54
2022/05/25 10:01:46;;;;;;;5.65;1.30;;;15.90;99.90;;;;;;5079624;28;20045;-52
2022/05/25 10:04:37;;;;;;;7.30;1.27;;;16.10;99.90;;;;;;5048201;28;20041;-53
2022/05/25 10:07:21;;;;;;;10.38;1.52;;;16.00;99.90;;;;;;5047164;28;20484;-55
2022/05/25 10:09:50;;;;;;;;;;;15.90;99.90;;;;;;5079470;28;20053;-51
2022/05/25 10:12:22;;;;;;;6.07;1.50;;;15.80;99.90;;;;;;5047754;28;19974;-52
2022/05/25 10:15:01;;;;;;;7.93;1.10;;;15.60;99.90;;;;;;5079981;28;20107;-51
2022/05/25 10:17:42;;;;;;;2.53;0.75;;;15.50;99.90;;;;;;5047824;28;20094;-56
2022/05/25 10:20:27;;;;;;;8.32;1.15;;;15.40;99.90;;;;;;5028426;28;20128;-54
2022/05/25 10:23:23;;;;;;;3.00;0.73;;;15.30;99.90;;;;;;5046736;28;20049;-55
2022/05/25 10:26:19;;;;;;;4.32;1.02;;;15.20;99.90;;;;;;5079783;28;20095;-53
2022/05/25 10:28:46;;;;;;;5.35;1.00;;;15.20;99.90;;;;;;5079045;28;20077;-53
2022/05/25 10:36:49;;;;;;;3.60;1.05;;;15.30;99.90;;;;;;5078622;28;20095;-54
2022/05/25 10:39:26;;;;;;;4.40;1.35;;;15.40;99.90;;;;;;5047738;28;20080;-56
2022/05/25 10:42:04;;;;;;;5.25;1.63;;;15.40;99.90;;;;;;5047274;28;20106;-55
2022/05/25 10:44:50;;;;;;;6.85;1.40;;;15.40;99.90;;;;;;5047249;28;20111;-55
2022/05/25 10:47:30;;;;;;;11.07;1.40;;;15.30;99.90;;;;;;5047518;28;20101;-53
2022/05/25 10:49:57;;;;;;;10.40;1.45;;;15.40;99.90;;;;;;5078101;28;20049;-55
2022/05/25 10:52:34;;;;;;;5.45;0.88;;;15.40;99.90;;;;;;5078660;28;20128;-53
2022/05/25 10:55:01;;;;;;;4.93;1.23;;;15.50;99.90;;;;;;5037630;28;20041;-54
2022/05/25 10:57:44;;;;;;;4.30;1.45;;;15.60;99.90;;;;;;5047166;28;20045;-54
2022/05/25 11:00:36;;;;;;;10.93;1.50;;;15.60;99.90;;;;;;5069532;28;20088;-52
2022/05/25 11:03:14;;;;;;;10.80;1.30;;;15.60;99.90;;;;;;5064289;28;20495;-54
2022/05/25 11:06:21;;;;;;;7.78;1.73;;;15.50;99.90;;;;;;5051097;28;20048;-51
2022/05/25 11:09:26;;;;;;;7.03;1.30;;;15.50;99.90;;;;;;5050063;28;20068;-55
2022/05/25 11:12:15;;;;;;;13.95;1.30;;;15.60;99.90;;;;;;5008505;28;20140;-54
2022/05/25 11:14:45;;;;;;;5.93;1.52;;;15.50;99.90;;;;;;5048933;28;20452;-54
2022/05/25 11:17:41;;;;;;;4.20;1.25;;;15.50;99.90;;;;;;5050778;28;20111;-53
2022/05/25 11:20:14;;;;;;;9.07;1.30;;;15.60;99.90;;;;;;5048167;28;20041;-52
2022/05/25 11:22:41;;;;;;;4.23;0.90;;;15.70;99.90;;;;;;5050889;28;20102;-54
2022/05/25 11:25:25;;;;;;;3.88;1.17;;;15.80;99.90;;;;;;5050454;28;20053;-54
2022/05/25 11:28:01;;;;;;;;;;;15.80;99.90;;;;;;5048179;28;20501;-54
2022/05/25 11:30:34;;;;;;;8.05;1.27;;;15.90;99.90;;;;;;5049955;28;20360;-53
2022/05/25 11:33:18;;;;;;;12.50;1.52;;;15.80;99.90;;;;;;5081787;28;20045;-55
2022/05/25 11:36:42;;;;;;;5.33;1.77;;;15.80;99.90;;;;;;5060002;28;20049;-55
2022/05/25 11:39:37;;;;;;;5.35;1.13;;;15.80;99.90;;;;;;5050329;28;20041;-55
2022/05/25 11:42:08;;;;;;;;;;;15.90;99.90;;;;;;5064399;28;20144;-54
2022/05/25 11:44:52;;;;;;;6.30;1.13;;;15.90;99.90;;;;;;5049882;28;19935;-55
2022/05/25 11:47:36;;;;;;;8.68;1.23;;;15.80;99.90;;;;;;5080183;28;20128;-55
2022/05/25 11:50:22;;;;;;;7.70;1.38;;;15.60;99.90;;;;;;5082132;28;20045;-56
2022/05/25 11:53:18;;;;;;;9.35;1.38;;;15.60;99.90;;;;;;5063642;28;20110;-56
2022/05/25 11:56:05;;;;;;;7.70;1.52;;;15.70;99.90;;;;;;5065265;28;20095;-54
2022/05/25 11:58:44;;;;;;;6.25;1.13;;;15.70;99.90;;;;;;5058485;28;20077;-54
2022/05/25 12:01:27;;;;;;;13.82;1.88;;;15.70;99.90;;;;;;5048972;28;20084;-56
2022/05/25 12:04:28;;;;;;;5.53;1.47;;;15.80;99.90;;;;;;5064584;28;20080;-56
2022/05/25 12:06:55;;;;;;;5.47;1.23;;;15.90;99.90;;;;;;5046862;28;20099;-56
2022/05/25 12:09:31;;;;;;;6.25;1.17;;;15.90;99.90;;;;;;5049831;28;20262;-55
2022/05/25 12:12:11;;;;;;;11.38;1.23;;;16.00;99.90;;;;;;5049480;28;20080;-54
2022/05/25 12:15:16;;;;;;;3.55;1.00;;;16.00;99.90;;;;;;5079676;28;20041;-54
2022/05/25 12:18:02;;;;;;;7.25;1.13;;;16.10;99.90;;;;;;5021182;28;20484;-55
2022/05/25 12:20:36;;;;;;;10.57;1.27;;;16.10;99.90;;;;;;5049310;28;20045;-54
2022/05/25 12:23:07;;;;;;;5.60;1.20;;;16.30;99.90;;;;;;5081513;28;20088;-55
2022/05/25 12:25:35;;;;;;;7.28;2.10;;;16.30;99.90;;;;;;5064699;28;20037;-54
2022/05/25 12:28:02;;;;;;;3.65;1.42;;;16.30;99.90;;;;;;5081774;28;20128;-56
2022/05/25 12:30:41;;;;;;;5.10;1.10;;;16.20;99.90;;;;;;5081133;28;20076;-56
2022/05/25 12:33:09;;;;;;;7.45;2.50;;;16.30;99.90;;;;;;5080976;28;20048;-56
2022/05/25 12:35:37;;;;;;;6.05;1.70;;;16.30;99.90;;;;;;5049221;28;20080;-56
2022/05/25 12:38:06;;;;;;;4.72;1.10;;;16.50;99.90;;;;;;5048678;28;20488;-54
2022/05/25 12:40:42;;;;;;;8.52;1.25;;;16.60;99.90;;;;;;5081140;28;20084;-61
2022/05/25 12:43:40;;;;;;;10.98;1.50;;;16.80;99.90;;;;;;5046819;28;20322;-56
2022/05/25 12:49:00;;;;;;;8.45;1.35;;;16.90;99.90;;;;;;5049585;28;20045;-53
2022/05/25 12:51:39;;;;;;;4.90;1.15;;;16.80;99.90;;;;;;5079044;28;20132;-55
2022/05/25 12:54:31;;;;;;;7.15;2.10;;;16.80;99.90;;;;;;5081343;28;20088;-56
2022/05/25 12:56:59;;;;;;;5.88;1.13;;;16.80;99.90;;;;;;5042337;28;20484;-51
2022/05/25 12:59:33;;;;;;;3.78;1.52;;;16.80;99.90;;;;;;5064316;28;20141;-53
2022/05/25 13:02:19;;;;;;;5.45;2.05;;;16.70;99.90;;;;;;5048940;28;20045;-54
2022/05/25 13:04:47;;;;;;;4.70;1.35;;;16.70;99.90;;;;;;5049402;28;20045;-56
2022/05/25 13:07:33;;;;;;;5.88;1.52;;;16.70;99.90;;;;;;5047279;28;20068;-55
2022/05/25 13:10:00;;;;;;;4.57;0.93;;;16.80;99.90;;;;;;5049331;28;20136;-56
2022/05/25 13:12:39;;;;;;;5.30;0.90;;;16.60;99.90;;;;;;5047235;28;20095;-54
2022/05/25 13:15:14;;;;;;;5.43;1.05;;;16.50;99.90;;;;;;5048890;28;20106;-55
2022/05/25 13:17:47;;;;;;;4.45;1.15;;;16.50;99.90;;;;;;5048702;28;20080;-56
2022/05/25 13:20:27;;;;;;;6.30;0.87;;;16.50;99.90;;;;;;5048791;28;20060;-56
2022/05/25 13:23:04;;;;;;;4.22;1.15;;;16.40;99.90;;;;;;5048521;28;20343;-53
2022/05/25 13:25:41;;;;;;;6.78;1.30;;;16.40;99.90;;;;;;5047630;28;20044;-53
2022/05/25 13:28:37;;;;;;;5.22;1.00;;;16.40;99.90;;;;;;5080651;28;20044;-53
2022/05/25 13:31:12;;;;;;;3.65;0.95;;;16.40;99.90;;;;;;5048737;28;20053;-54
2022/05/25 13:33:41;;;;;;;4.53;0.88;;;16.50;99.90;;;;;;5080288;28;20041;-54
2022/05/25 13:36:25;;;;;;;3.40;0.95;;;16.60;99.90;;;;;;5064062;28;20084;-54
2022/05/25 13:39:05;;;;;;;1.77;0.82;;;16.60;99.90;;;;;;5048271;28;20092;-54
2022/05/25 13:41:39;;;;;;;3.47;1.17;;;16.70;99.90;;;;;;5048475;28;20135;-54